Timeline UpdatesTrip UpdatesNews PostsPvt Posts♥♥Travel TipsAdmin PostsConv PostsFollowed PostsChat RequestsBlog PostsPNR Posts

Disclaimer
Search
 
 
Wed Nov 26, 2014 04:42:25 ISTHomeTrainsΣChainsAtlasPNRForumGalleryNewsFAQTripsMembersLoginFeedback
No Recent News for this Train
Other Trains in the News **new
Latest...
MST holders permitted to travel in IInd class general coaches between Saharanpur-Merrut-Ghaziabad.
Sun Nov 23, 2014 (07:51PM)
⇐ Return Journey: Train# 19019

19020/Dehradun - Mumbai Bandra Terminus Express

Time-Table HAS CHANGED.
Nov 23 (7:51PM)
Change Departure Station:
Change Arrival Station:
Post a Train Travel TipPost a Train Travel Tip **new
Post a Comment/Question/Picture/VideoPost a Comment/Question/Picture/Video
Pantry/Catering
✕ NO Pantry Car
✓ Catering Avbl
Loco/Rake Reversals
SRE/Saharanpur Junction (6); LRJ/Laksar Junction (4);
RSA - Rake Sharing
Rake/Coach Composition
LOCO-SLR-HCPV-GEN-GEN-AB1-S1-S2-S3-S4-S5-S6-S7-S8-S9-SLR
Loco
GZB WAP-7 NZM-BDTS. ddn to nzm tkd wdp 3a. By Er...
Read more...
Ankit Shotra Bhagat Entry# 595554
News    PNR    Forum    Time-Table    Availability    Fare Chart    Map    Arr/Dep History    Trips    Gallery    ΣChains    X/O    Timeline    
Travel Time: 6h 25m    18 halts    Distance: 267 km    Avg Speed: 41 km/hr
Type: Mail/Express
Zone: WR/Western
Departs @ 07:50
Platform# 2
SMTWTFS
Kota Junction/KOTA 
Arrives @ 14:15
Platform# 4
SMTWTFS
Ratlam Junction/RTM 

18 halts. 33 intermediate Stations between Kota Junction and Ratlam Junction

Show ALL intermediate Stations  Show Old Time-Table

#TrkCodeStation NameX/OArrivesAvgDepartsAvgHaltPFDay#KmSpeedElevZoneAddress
1%--%DDNDehradun (4)  -10:35 10:30-21-773.138648mNRDehradun, Uttarakhand
2%--%DWODoiwala  11:04 11:01-11:06 11:03-2m--1-753.341484mNRDehradun, Uttarakhand
3%--%RWLRaiwala Junction (2)X  11:38 11:33-11:40 11:35-2m21-732.617361mNRRishikesh, Uttarakhand
4%--%MOTCMotichur (2)  12:00 11:58-12:02 12:00-2m11-726.018312mNRHaridwar, Uttarakhand
5|--|HWHaridwar Junction (9)X  12:15-12:45-30m31-721.448294mNRHaridwar, Uttarakhand
6%--%JWPJwalapurX  12:53 12:50-12:55 12:52-2m--1-717.520292mNRHaridwar, Uttarakhand
7%--%LRJLaksar Junction (4)X14:00-14:25-25m--1-694.553238mNRLaksar, Uttarakhand
8/==/RKRoorkee (3)X  14:43 14:45-14:45 14:50-2 5m31-676.746264mNRRoorkee - 247667, Uttarakhand
9/==/SRESaharanpur Junction (6)X15:35-16:05-30m41-642.048276mNRSaharanpur, Uttar Pradesh
10%--%DBDDeoband (2)  16:50 16:48-16:52 16:50-2m21-607.844258mNRSaharanpur, Uttar Pradesh
11%--%MOZMuzaffarnagar (3)X  17:20 17:23-17:22 17:25-2m21-583.863247mNRMuzaffarNagar, Uttar Pradesh
12%--%KATKhatauli (2)  17:42 17:46-17:44 17:48-2m11-561.676239mNRKhatauli, Uttar Pradesh
13%--%MUTMeerut Cantt. (2)  18:08 18:11-18:10 18:13-2m11-532.512230mNRMeerut, Uttar Pradesh
14%--%MTCMeerut City Junction (6)X18:35-19:20-45m41-528.273229mNRMeerut, Uttar Pradesh
15%==%MDNRModinagar (2)X  19:34 19:36-19:36 19:38-2m21-508.755221mNRGhaziabad, Uttar Pradesh
16%==%MUDMuradnagar (2)X  19:45 19:49-19:47 19:51-2m21-498.659220mNRGhaziabad, Uttar Pradesh
17%==%GZNNew Ghaziabad (2)XO  20:02 20:03-20:04 20:05-2m21-486.914213mNRGhaziabad, Uttar Pradesh
18%==%GZBGhaziabad Junction (6)XO  20:30 20:31-20:32 20:33-2m41-481.034217mNRGhaziabad, Uttar Pradesh
19/==/SBBSahibabad Junction (5)X  20:41 20:45-20:43 20:46-2 1m--1-474.333209mNRGhaziabad, Uttar Pradesh
20/==/NZMDelhi Hazrat Nizamuddin (7)O21:15-21:55-40m11-458.225209mNRNew Delhi 110013, Delhi NCT
21/==/TKDTuglakabad (2)O  22:18-22:20-2m11-448.544213mNRNear Tughlakabad Metro Station, Delhi NCT
22/==/FDBFaridabad (4)O  22:44 22:35-22:46 22:36-2 1m31-437.435206mNRold Faridabad, Haryana
23/==/BVHBallabgarh (5)XO  22:58 22:50-23:00 22:52-2m--1-429.429203mNRFaridabad, Haryana
24/==/PWLPalwal (8)X  23:36-23:38-2m--1-408.285200mNRPalwal, Haryana
25/==/KSVKosi Kalan (3)O  00:08-00:10-2m22-365.729189mNCRKosi Kalan, Uttar Pradesh
26/==/MTJMathura Junction (10)XO  01:35-01:45 01:40-10 5m32-324.361179mNCRMathura, Uttar Pradesh
27/==/BTEBharatpur Junction (5)  02:10 02:13-02:15-5 2m--2-290.784174mWCRBharatpur, Rajasthan
28/==/BXNBayana Junction (3)X  02:45-02:47-2m--2-248.870198mWCRBayana, Rajasthan
29/==/HANHindaun City (2)  03:15-03:17-2m--2-215.956230mWCRKarauli, Rajasthan
30/==/SMBJShri Mahabirji (3)O  03:26 03:28-03:28 03:30-2m--2-205.741240mWCRKarauli, Rajasthan
31/==/GGCGangapur City (3)  04:10 04:20-04:20 04:25-10 5m--2-171.663270mWCRGangapur, Rajasthan
32/==/MLZMalarnaX  04:50 04:57-04:52 04:59-2m--2-137.986236mWCRSawai Madhopur, Rajasthan
33/==/SWMSawai Madhopur Junction (4)X  05:20-05:25-5m--2-107.778266mWCRSawai Madhopur, Rajasthan
34/==/IDGIndargarh Sumerganj Mandi (2)X  05:48 05:53-05:50 05:55-2m--2-71.466247mWCRIndargarh, Rajasthan
35/==/LKELakheri (3)  05:58 06:05-06:00 06:07-2m--2-60.569228mWCRBundi, Rajasthan
36/==/KPTNKeshorai PatanXO  06:38 06:48-06:40 06:50-2m--2-13.453243mWCRSH 33, Rajasthan
37/==/GQLGurlaO  06:48 06:59-06:50 07:00-2 1m--2-5.411251mWCRSH 33, Rajasthan
38|--|KOTAKota Junction (5)»X07:30-07:50-20m220.033256mWCRKota, Rajasthan
39/==/DKNTDakaniya Talav (2)  08:01 08:07-08:03 08:08-2 1m229.379278mWCRKota, Rajasthan
40/==/DARADara  08:30 08:37-08:32 08:39-2m--247.563354mWCRDara, Rajasthan
41/==/MKXMorak (2)X  08:48 08:53-08:50 08:55-2m--262.242337mWCRMorak, Rajasthan
42/==/RMARamganj Mandi Junction (3)  09:03 09:08-09:05 09:10-2m--271.357358mWCRRamganj Mandi, Rajasthan
43/==/JHWJhalawar Road (3)  09:18 09:23-09:20 09:25-2m--283.655361mWCRJhalawar City, Rajasthan
44/==/BWMBhawani Mandi (3)  09:38 09:43-09:40 09:45-2m--2100.176384mWCRBhawani Mandi, Madhya Pradesh
45/==/GOHGaroth (2)  09:58 10:03-10:00 10:05-2m12122.828441mWCRMadhya Pradesh 458880, Madhya Pradesh
46/==/SGZShamgarh (3)X  10:25 10:28-10:30-5 2m--2133.667463mWCRMandsaur, Madhya Pradesh
47/==/SVASuwasra (2)  10:42-10:44-2m--2147.066450mWCRSuwasra, Madhya Pradesh
48/==/CMUChau Mahla (3)  10:58-11:00-2m12162.435426mWCRJhalawar, Rajasthan
49/==/THURThuriaX  11:24-11:26-2m--2176.621430mWCRMDR 45, Madhya Pradesh
50/==/VMAVikramgarh Alot (2)  11:48-11:50-2m12184.261443mWCRKota Division, Madhya Pradesh
51/==/LNRLuni Richha  12:03-12:05-2m--2197.528471mWCRAlote, Madhya Pradesh
52/==/MEPMahidpur Road  12:28-12:30-2m--2208.129493mWCRGogapur, Madhya Pradesh
53/==/NADNagda Junction (4)  13:05-13:15-10m--2225.264468mWRNagda, Madhya Pradesh
54/==/KUHKhachrod (2)  13:26 13:28-13:28 13:30-2m--2239.057497mWRUjjain, Madhya Pradesh
55/==/RNHRunkheraX  13:39 13:41-13:41 13:42-2 1m--2249.555478mWRUjjain, Madhya Pradesh
56/==/BODBangrodX  13:48 13:50-13:50 13:51-2 1m--2256.825484mWRRatlam, Madhya Pradesh
57/==/RTMRatlam Junction (7)•X  14:15-14:35-20m42266.670495mWRRatlam 457001, Madhya Pradesh
58/==/RTIRaoti (2)  14:56 14:58-14:58 14:59-2 1m--2293.565409mWRState Highway 39A, Madhya Pradesh
59/==/BOGBhairongarh (2)  15:08 15:10-15:10 15:11-2 1m--2305.445374mWRBhairongarh Railway Station, Madhya Pradesh
60/==/BMIBamnia (2)  15:17 15:19-15:19 15:21-2m--2311.442392mWRBamnia, Madhya Pradesh
61/==/AGRAmargarh (2)  15:25 15:27-15:27 15:28-2 1m--2315.552410mWRSH 39A, Madhya Pradesh
62/==/PCNPanch Pipila (2)  15:37 15:39-15:39 15:40-2 1m--2325.076369mWRSH 39A, Madhya Pradesh
63/==/THDRThandla Road (2)X  15:49 15:51-15:51 15:53-2m--2338.960317mWRJhabua, Madhya Pradesh
64/==/MGNMeghnagar (3)  15:59 16:01-16:01 16:03-2m--2346.973317mWRJhabua, Madhya Pradesh
65/==/ANASAnas (2)  16:13 16:15-16:15 16:16-2 1m--2361.568288mWRMadhya Pradesh 389154 ?, Madhya Pradesh
66/==/BIOBordi (2)  16:21 16:23-16:23 16:24-2 1m--2369.458289mWRNational Highway 59, Gujarat
67/==/DHDDahod (3)  16:35-16:40 16:37-5 2m--2380.064313mWRDahod, Gujarat
68/==/LMKLimkheda  17:06 17:08-17:08 17:09-2 1m--2413.060205mWRLimkheda, Gujarat
69/==/PPDPiplod Junction  17:15 17:17-17:17 17:19-2m--2420.979209mWRPiplod, Gujarat
70/==/SATSant Road (2)X  17:26 17:28-17:28 17:30-2m22432.820169mWROrwara, Gujarat
71/==/GDAGodhra Junction (3)X  18:30-18:35-5m102453.154122mWRGodhra, Gujarat
72/==/KRSAKharsaliya (2)  18:45 18:47-18:47 18:48-2 1m--2464.076107mWRPanchmahal, Gujarat
73/==/DRLDerolX  18:56 18:58-18:58 19:00-2m12476.76881mWRKalol, Gujarat
74/==/CPNChampaner Road JunctionXO  19:09 19:11-19:11 19:13-2m--2489.27578mWRPanchmahal, Gujarat
75/==/SMLASamlaya Junction (3)X  19:20 19:22-19:22 19:24-2m--2500.45267mWRVadodara, Gujarat
76/==/BRCVadodara Junction (7)  19:55-20:05-10m32527.08136mWRVadodara 390005, Gujarat
77/==/MYGMiyagam Karjan (2)  20:25 20:27-20:27 20:28-2 1m--2556.87029mWRKarjan, Gujarat
78/==/BHBharuch Junction (5)X  21:01 21:03-21:03 21:05-2m42597.56219mWRBharuch, Gujarat
79/==/AKVAnkleshwar Junction (4)X  21:12 21:14-21:14 21:16-2m22606.99319mWRAnkleshwar, Gujarat
80/==/KSBKosamba Junction (3)X21:29 21:28-21:31 21:30-2m--2625.43130mWRKosamba, Gujarat
81/==/STSurat (4)X  22:30-22:38-8m22656.87419mWRSurat 395001, Gujarat
82/==/NVSNavsari (3)  23:03 23:02-23:05-2 3m--2686.47914mWRNavsari, Gujarat
83/==/BIMBilimora Junction (4)X  23:21-23:23-2m--2707.63611mWRBilimora, Gujarat
84/==/BLValsad (3)  23:53-23:55-2m32725.53815mWRValsad, Gujarat
85/==/VAPIVapi (3)X  00:36-00:38-2m--3751.86827mWRVapi, Gujarat
86/==/PLGPalghar (3)  02:04 01:50-02:06 02:02-2 12m--3833.33519mWRPalghar, Maharashtra
87/==/VRVirar (8)  02:56-02:58-2m--3864.4536mWRDist. Palghar, Maharashtra
88/==/BVIMumbai Borivali (8)  03:30 03:27-03:32-2 5m53890.22319mWRMumbai - 400092, Maharashtra
89/==/BDTSMumbai Bandra Terminus (5)  04:20--13909.0-4mWRMumbai 400050, Maharashtra
Scroll to Top
Scroll to Bottom